sensor_id;sensor_type;location;lat;lon;timestamp;temperature;humidity
17425;DHT22;8830;50.978;5.058;2023-02-28T00:01:20;1.30;99.90
17425;DHT22;8830;50.978;5.058;2023-02-28T00:03:49;1.20;99.90
17425;DHT22;8830;50.978;5.058;2023-02-28T00:06:16;1.20;99.90
17425;DHT22;8830;50.978;5.058;2023-02-28T00:08:43;1.30;99.90
17425;DHT22;8830;50.978;5.058;2023-02-28T00:11:14;1.20;99.90
17425;DHT22;8830;50.978;5.058;2023-02-28T00:13:43;2.70;99.90
17425;DHT22;8830;50.978;5.058;2023-02-28T00:16:13;1.20;99.90
17425;DHT22;8830;50.978;5.058;2023-02-28T00:18:41;1.20;99.90
17425;DHT22;8830;50.978;5.058;2023-02-28T00:21:08;1.20;99.90
17425;DHT22;8830;50.978;5.058;2023-02-28T00:23:36;1.10;99.90
17425;DHT22;8830;50.978;5.058;2023-02-28T00:26:04;1.10;99.90
17425;DHT22;8830;50.978;5.058;2023-02-28T00:28:33;1.20;99.90
17425;DHT22;8830;50.978;5.058;2023-02-28T00:31:00;1.20;99.90
17425;DHT22;8830;50.978;5.058;2023-02-28T00:33:28;1.20;99.90
17425;DHT22;8830;50.978;5.058;2023-02-28T00:36:04;1.10;99.90
17425;DHT22;8830;50.978;5.058;2023-02-28T00:38:31;1.10;99.90
17425;DHT22;8830;50.978;5.058;2023-02-28T00:40:58;1.30;99.90
17425;DHT22;8830;50.978;5.058;2023-02-28T00:43:30;1.10;99.90
17425;DHT22;8830;50.978;5.058;2023-02-28T00:45:59;1.10;99.90
17425;DHT22;8830;50.978;5.058;2023-02-28T00:48:26;2.70;99.90
17425;DHT22;8830;50.978;5.058;2023-02-28T00:50:53;1.10;99.90
17425;DHT22;8830;50.978;5.058;2023-02-28T00:53:20;1.90;99.90
17425;DHT22;8830;50.978;5.058;2023-02-28T00:55:48;1.10;99.90
17425;DHT22;8830;50.978;5.058;2023-02-28T00:58:14;1.10;99.90
17425;DHT22;8830;50.978;5.058;2023-02-28T01:00:42;1.10;99.90
17425;DHT22;8830;50.978;5.058;2023-02-28T01:03:10;1.10;99.90
17425;DHT22;8830;50.978;5.058;2023-02-28T01:05:37;1.80;99.90
17425;DHT22;8830;50.978;5.058;2023-02-28T01:08:05;1.10;99.90
17425;DHT22;8830;50.978;5.058;2023-02-28T01:10:34;1.20;99.90
17425;DHT22;8830;50.978;5.058;2023-02-28T01:13:02;1.00;99.90
17425;DHT22;8830;50.978;5.058;2023-02-28T01:15:29;0.90;99.90
17425;DHT22;8830;50.978;5.058;2023-02-28T01:17:57;0.90;99.90
17425;DHT22;8830;50.978;5.058;2023-02-28T01:20:27;1.70;99.90
17425;DHT22;8830;50.978;5.058;2023-02-28T01:22:54;0.90;99.90
17425;DHT22;8830;50.978;5.058;2023-02-28T01:25:21;0.90;99.90
17425;DHT22;8830;50.978;5.058;2023-02-28T01:27:48;0.90;99.90
17425;DHT22;8830;50.978;5.058;2023-02-28T01:30:15;0.90;99.90
17425;DHT22;8830;50.978;5.058;2023-02-28T01:32:42;0.80;99.90
17425;DHT22;8830;50.978;5.058;2023-02-28T01:35:09;0.80;99.90
17425;DHT22;8830;50.978;5.058;2023-02-28T01:37:38;0.70;99.90
17425;DHT22;8830;50.978;5.058;2023-02-28T01:40:06;1.70;99.90
17425;DHT22;8830;50.978;5.058;2023-02-28T01:42:34;0.60;99.90
17425;DHT22;8830;50.978;5.058;2023-02-28T01:45:04;0.60;99.90
17425;DHT22;8830;50.978;5.058;2023-02-28T01:47:38;0.60;99.90
17425;DHT22;8830;50.978;5.058;2023-02-28T01:50:11;1.90;99.90
17425;DHT22;8830;50.978;5.058;2023-02-28T01:52:41;0.60;99.90
17425;DHT22;8830;50.978;5.058;2023-02-28T01:55:11;0.60;99.90
17425;DHT22;8830;50.978;5.058;2023-02-28T01:57:41;0.60;99.90
17425;DHT22;8830;50.978;5.058;2023-02-28T02:00:11;0.50;99.90
17425;DHT22;8830;50.978;5.058;2023-02-28T02:02:42;0.50;99.90
17425;DHT22;8830;50.978;5.058;2023-02-28T02:05:14;0.60;99.90
17425;DHT22;8830;50.978;5.058;2023-02-28T02:07:44;0.50;99.90
17425;DHT22;8830;50.978;5.058;2023-02-28T02:10:14;0.90;99.90
17425;DHT22;8830;50.978;5.058;2023-02-28T02:13:06;2.10;99.90
17425;DHT22;8830;50.978;5.058;2023-02-28T02:15:39;0.50;99.90
17425;DHT22;8830;50.978;5.058;2023-02-28T02:18:16;0.50;99.90
17425;DHT22;8830;50.978;5.058;2023-02-28T02:27:10;0.40;99.90
17425;DHT22;8830;50.978;5.058;2023-02-28T02:36:01;0.50;99.90
17425;DHT22;8830;50.978;5.058;2023-02-28T02:38:33;0.40;99.90
17425;DHT22;8830;50.978;5.058;2023-02-28T02:41:08;0.40;99.90
17425;DHT22;8830;50.978;5.058;2023-02-28T02:43:44;0.30;99.90
17425;DHT22;8830;50.978;5.058;2023-02-28T02:46:16;1.20;99.90
17425;DHT22;8830;50.978;5.058;2023-02-28T02:48:44;0.30;99.90
17425;DHT22;8830;50.978;5.058;2023-02-28T02:51:16;0.50;99.90
17425;DHT22;8830;50.978;5.058;2023-02-28T02:53:47;0.30;99.90
17425;DHT22;8830;50.978;5.058;2023-02-28T02:56:17;0.30;99.90
17425;DHT22;8830;50.978;5.058;2023-02-28T02:58:47;0.20;99.90
17425;DHT22;8830;50.978;5.058;2023-02-28T03:01:19;0.20;99.90
17425;DHT22;8830;50.978;5.058;2023-02-28T03:03:54;0.20;99.90
17425;DHT22;8830;50.978;5.058;2023-02-28T03:06:23;1.70;99.90
17425;DHT22;8830;50.978;5.058;2023-02-28T03:08:50;0.20;99.90
17425;DHT22;8830;50.978;5.058;2023-02-28T03:11:17;0.10;99.90
17425;DHT22;8830;50.978;5.058;2023-02-28T03:13:55;0.10;99.90
17425;DHT22;8830;50.978;5.058;2023-02-28T03:16:49;0.10;99.90
17425;DHT22;8830;50.978;5.058;2023-02-28T03:19:34;1.40;99.90
17425;DHT22;8830;50.978;5.058;2023-02-28T03:22:14;0.10;99.90
17425;DHT22;8830;50.978;5.058;2023-02-28T03:24:48;2.20;99.90
17425;DHT22;8830;50.978;5.058;2023-02-28T03:27:22;0.10;99.90
17425;DHT22;8830;50.978;5.058;2023-02-28T03:29:53;0.00;99.90
17425;DHT22;8830;50.978;5.058;2023-02-28T03:32:28;0.00;99.90
17425;DHT22;8830;50.978;5.058;2023-02-28T03:34:59;-0.10;99.90
17425;DHT22;8830;50.978;5.058;2023-02-28T03:37:31;-0.10;99.90
17425;DHT22;8830;50.978;5.058;2023-02-28T03:40:03;0.00;99.90
17425;DHT22;8830;50.978;5.058;2023-02-28T03:42:35;0.00;99.90
17425;DHT22;8830;50.978;5.058;2023-02-28T03:45:08;0.00;99.90
17425;DHT22;8830;50.978;5.058;2023-02-28T03:47:40;0.00;99.90
17425;DHT22;8830;50.978;5.058;2023-02-28T03:50:12;0.10;99.90
17425;DHT22;8830;50.978;5.058;2023-02-28T03:52:47;0.10;99.90
17425;DHT22;8830;50.978;5.058;2023-02-28T03:55:16;0.10;99.90
17425;DHT22;8830;50.978;5.058;2023-02-28T03:57:53;0.20;99.90
17425;DHT22;8830;50.978;5.058;2023-02-28T04:00:28;1.90;99.90
17425;DHT22;8830;50.978;5.058;2023-02-28T04:02:57;0.30;99.90
17425;DHT22;8830;50.978;5.058;2023-02-28T04:05:24;1.50;99.90
17425;DHT22;8830;50.978;5.058;2023-02-28T04:07:53;0.30;99.90
17425;DHT22;8830;50.978;5.058;2023-02-28T04:10:20;0.30;99.90
17425;DHT22;8830;50.978;5.058;2023-02-28T04:12:47;0.60;99.90
17425;DHT22;8830;50.978;5.058;2023-02-28T04:15:15;0.30;99.90
17425;DHT22;8830;50.978;5.058;2023-02-28T04:17:42;0.30;99.90
17425;DHT22;8830;50.978;5.058;2023-02-28T04:20:10;0.30;99.90
17425;DHT22;8830;50.978;5.058;2023-02-28T04:22:37;0.30;99.90
17425;DHT22;8830;50.978;5.058;2023-02-28T04:25:07;0.40;99.90
17425;DHT22;8830;50.978;5.058;2023-02-28T04:27:34;0.40;99.90
17425;DHT22;8830;50.978;5.058;2023-02-28T04:30:01;0.40;99.90
17425;DHT22;8830;50.978;5.058;2023-02-28T04:32:28;0.40;99.90
17425;DHT22;8830;50.978;5.058;2023-02-28T04:34:55;0.40;99.90
17425;DHT22;8830;50.978;5.058;2023-02-28T04:37:22;1.60;99.90
17425;DHT22;8830;50.978;5.058;2023-02-28T04:39:54;0.30;99.90
17425;DHT22;8830;50.978;5.058;2023-02-28T04:42:22;0.30;99.90
17425;DHT22;8830;50.978;5.058;2023-02-28T04:44:50;0.20;99.90
17425;DHT22;8830;50.978;5.058;2023-02-28T04:47:17;0.20;99.90
17425;DHT22;8830;50.978;5.058;2023-02-28T04:49:44;0.20;99.90
17425;DHT22;8830;50.978;5.058;2023-02-28T04:52:12;0.10;99.90
17425;DHT22;8830;50.978;5.058;2023-02-28T04:54:39;1.10;99.90
17425;DHT22;8830;50.978;5.058;2023-02-28T04:57:06;0.10;99.90
17425;DHT22;8830;50.978;5.058;2023-02-28T04:59:35;0.10;99.90
17425;DHT22;8830;50.978;5.058;2023-02-28T05:02:02;0.00;99.90
17425;DHT22;8830;50.978;5.058;2023-02-28T05:04:33;0.00;99.90
17425;DHT22;8830;50.978;5.058;2023-02-28T05:07:01;0.00;99.90
17425;DHT22;8830;50.978;5.058;2023-02-28T05:09:28;-0.10;99.90
17425;DHT22;8830;50.978;5.058;2023-02-28T05:11:56;-0.20;99.90
17425;DHT22;8830;50.978;5.058;2023-02-28T05:14:23;-0.20;99.90
17425;DHT22;8830;50.978;5.058;2023-02-28T05:16:52;-0.20;99.90
17425;DHT22;8830;50.978;5.058;2023-02-28T05:19:19;-0.20;99.90
17425;DHT22;8830;50.978;5.058;2023-02-28T05:21:51;-0.20;99.90
17425;DHT22;8830;50.978;5.058;2023-02-28T05:24:20;0.20;99.90
17425;DHT22;8830;50.978;5.058;2023-02-28T05:26:49;-0.20;99.90
17425;DHT22;8830;50.978;5.058;2023-02-28T05:29:18;-0.20;99.90
17425;DHT22;8830;50.978;5.058;2023-02-28T05:31:45;-0.20;99.90
17425;DHT22;8830;50.978;5.058;2023-02-28T05:34:13;-0.30;99.90
17425;DHT22;8830;50.978;5.058;2023-02-28T05:36:41;-0.30;99.90
17425;DHT22;8830;50.978;5.058;2023-02-28T05:39:09;-0.30;99.90
17425;DHT22;8830;50.978;5.058;2023-02-28T05:41:39;1.50;99.90
17425;DHT22;8830;50.978;5.058;2023-02-28T05:44:07;-0.40;99.90
17425;DHT22;8830;50.978;5.058;2023-02-28T05:46:34;-0.40;99.90
17425;DHT22;8830;50.978;5.058;2023-02-28T05:49:01;0.90;99.90
17425;DHT22;8830;50.978;5.058;2023-02-28T05:51:30;0.90;99.90
17425;DHT22;8830;50.978;5.058;2023-02-28T05:54:01;-0.40;99.90
17425;DHT22;8830;50.978;5.058;2023-02-28T05:56:28;-0.30;99.90
17425;DHT22;8830;50.978;5.058;2023-02-28T05:58:55;-0.40;99.90
17425;DHT22;8830;50.978;5.058;2023-02-28T06:01:30;-0.40;99.90
17425;DHT22;8830;50.978;5.058;2023-02-28T06:03:58;-0.40;99.90
17425;DHT22;8830;50.978;5.058;2023-02-28T06:06:25;-0.40;99.90
17425;DHT22;8830;50.978;5.058;2023-02-28T06:08:53;-0.40;99.90
17425;DHT22;8830;50.978;5.058;2023-02-28T06:11:20;0.80;99.90
17425;DHT22;8830;50.978;5.058;2023-02-28T06:13:53;-0.40;99.90
17425;DHT22;8830;50.978;5.058;2023-02-28T06:16:20;-0.40;99.90
17425;DHT22;8830;50.978;5.058;2023-02-28T06:18:47;-0.50;99.90
17425;DHT22;8830;50.978;5.058;2023-02-28T06:21:14;-0.50;99.90
17425;DHT22;8830;50.978;5.058;2023-02-28T06:23:41;-0.70;99.90
17425;DHT22;8830;50.978;5.058;2023-02-28T06:26:09;-0.60;99.90
17425;DHT22;8830;50.978;5.058;2023-02-28T06:28:36;-0.60;99.90
17425;DHT22;8830;50.978;5.058;2023-02-28T06:31:08;-0.60;99.90
17425;DHT22;8830;50.978;5.058;2023-02-28T06:33:36;-0.50;99.90
17425;DHT22;8830;50.978;5.058;2023-02-28T06:36:04;-0.50;99.90
17425;DHT22;8830;50.978;5.058;2023-02-28T06:38:31;-0.50;99.90
17425;DHT22;8830;50.978;5.058;2023-02-28T06:41:00;0.30;99.90
17425;DHT22;8830;50.978;5.058;2023-02-28T06:43:30;-0.50;99.90
17425;DHT22;8830;50.978;5.058;2023-02-28T06:45:58;0.30;99.90
17425;DHT22;8830;50.978;5.058;2023-02-28T06:48:26;-0.50;99.90
17425;DHT22;8830;50.978;5.058;2023-02-28T06:51:01;-0.50;99.90
17425;DHT22;8830;50.978;5.058;2023-02-28T06:55:56;-0.50;99.90
17425;DHT22;8830;50.978;5.058;2023-02-28T06:58:23;-0.40;99.90
17425;DHT22;8830;50.978;5.058;2023-02-28T07:00:52;-0.40;99.90
17425;DHT22;8830;50.978;5.058;2023-02-28T07:03:19;2.40;99.90
17425;DHT22;8830;50.978;5.058;2023-02-28T07:05:46;-0.40;99.90
17425;DHT22;8830;50.978;5.058;2023-02-28T07:08:13;-0.30;99.90
17425;DHT22;8830;50.978;5.058;2023-02-28T07:10:41;-0.30;99.90
17425;DHT22;8830;50.978;5.058;2023-02-28T07:13:09;0.20;99.90
17425;DHT22;8830;50.978;5.058;2023-02-28T07:15:37;1.30;99.90
17425;DHT22;8830;50.978;5.058;2023-02-28T07:18:05;2.50;99.90
17425;DHT22;8830;50.978;5.058;2023-02-28T07:20:32;3.50;99.90
17425;DHT22;8830;50.978;5.058;2023-02-28T07:22:59;4.30;99.90
17425;DHT22;8830;50.978;5.058;2023-02-28T07:25:28;4.90;99.90
17425;DHT22;8830;50.978;5.058;2023-02-28T07:27:56;5.40;99.90
17425;DHT22;8830;50.978;5.058;2023-02-28T07:30:24;5.70;99.90
17425;DHT22;8830;50.978;5.058;2023-02-28T07:32:52;6.00;99.90
17425;DHT22;8830;50.978;5.058;2023-02-28T07:35:21;7.30;99.90
17425;DHT22;8830;50.978;5.058;2023-02-28T07:37:49;6.00;99.90
17425;DHT22;8830;50.978;5.058;2023-02-28T07:40:16;8.10;99.90
17425;DHT22;8830;50.978;5.058;2023-02-28T07:42:44;6.60;99.90
17425;DHT22;8830;50.978;5.058;2023-02-28T07:45:11;6.90;99.90
17425;DHT22;8830;50.978;5.058;2023-02-28T07:47:42;7.20;99.90
17425;DHT22;8830;50.978;5.058;2023-02-28T07:50:10;7.20;99.90
17425;DHT22;8830;50.978;5.058;2023-02-28T07:52:40;7.20;99.90
17425;DHT22;8830;50.978;5.058;2023-02-28T07:55:08;7.50;99.90
17425;DHT22;8830;50.978;5.058;2023-02-28T07:57:36;7.60;99.90
17425;DHT22;8830;50.978;5.058;2023-02-28T08:00:05;7.20;99.90
17425;DHT22;8830;50.978;5.058;2023-02-28T08:02:33;7.10;99.90
17425;DHT22;8830;50.978;5.058;2023-02-28T08:05:00;7.50;99.90
17425;DHT22;8830;50.978;5.058;2023-02-28T08:07:27;8.10;99.90
17425;DHT22;8830;50.978;5.058;2023-02-28T08:09:55;8.60;99.90
17425;DHT22;8830;50.978;5.058;2023-02-28T08:12:22;8.60;99.90
17425;DHT22;8830;50.978;5.058;2023-02-28T08:14:49;8.50;99.90
17425;DHT22;8830;50.978;5.058;2023-02-28T08:17:17;8.70;99.90
17425;DHT22;8830;50.978;5.058;2023-02-28T08:19:45;8.40;99.90
17425;DHT22;8830;50.978;5.058;2023-02-28T08:22:12;8.70;99.90
17425;DHT22;8830;50.978;5.058;2023-02-28T08:24:41;8.50;99.90
17425;DHT22;8830;50.978;5.058;2023-02-28T08:27:09;7.70;99.90
17425;DHT22;8830;50.978;5.058;2023-02-28T08:29:37;7.50;99.90
17425;DHT22;8830;50.978;5.058;2023-02-28T08:32:06;6.90;99.90
17425;DHT22;8830;50.978;5.058;2023-02-28T08:34:36;7.20;99.90
17425;DHT22;8830;50.978;5.058;2023-02-28T08:37:06;6.70;99.90
17425;DHT22;8830;50.978;5.058;2023-02-28T08:39:34;6.10;99.90
17425;DHT22;8830;50.978;5.058;2023-02-28T08:42:01;5.60;99.90
17425;DHT22;8830;50.978;5.058;2023-02-28T08:44:31;4.90;99.90
17425;DHT22;8830;50.978;5.058;2023-02-28T08:46:58;4.10;99.90
17425;DHT22;8830;50.978;5.058;2023-02-28T08:49:25;4.00;99.90
17425;DHT22;8830;50.978;5.058;2023-02-28T08:51:55;4.50;99.90
17425;DHT22;8830;50.978;5.058;2023-02-28T08:54:23;3.90;99.90
17425;DHT22;8830;50.978;5.058;2023-02-28T08:56:50;3.50;99.90
17425;DHT22;8830;50.978;5.058;2023-02-28T08:59:17;4.60;99.90
17425;DHT22;8830;50.978;5.058;2023-02-28T09:01:46;3.40;99.90
17425;DHT22;8830;50.978;5.058;2023-02-28T09:04:13;3.50;99.90
17425;DHT22;8830;50.978;5.058;2023-02-28T09:06:40;3.50;99.90
17425;DHT22;8830;50.978;5.058;2023-02-28T09:09:07;6.10;99.90
17425;DHT22;8830;50.978;5.058;2023-02-28T09:11:35;3.60;99.90
17425;DHT22;8830;50.978;5.058;2023-02-28T09:14:02;4.20;99.90
17425;DHT22;8830;50.978;5.058;2023-02-28T09:16:31;3.50;99.90
17425;DHT22;8830;50.978;5.058;2023-02-28T09:19:00;3.50;99.90
17425;DHT22;8830;50.978;5.058;2023-02-28T09:21:27;3.50;99.90
17425;DHT22;8830;50.978;5.058;2023-02-28T09:23:55;4.00;99.90
17425;DHT22;8830;50.978;5.058;2023-02-28T09:26:25;4.10;99.90
17425;DHT22;8830;50.978;5.058;2023-02-28T09:28:53;3.80;99.90
17425;DHT22;8830;50.978;5.058;2023-02-28T09:31:23;3.70;99.90
17425;DHT22;8830;50.978;5.058;2023-02-28T09:33:52;3.70;99.90
17425;DHT22;8830;50.978;5.058;2023-02-28T09:36:20;3.70;99.90
17425;DHT22;8830;50.978;5.058;2023-02-28T09:38:48;4.00;99.90
17425;DHT22;8830;50.978;5.058;2023-02-28T09:41:20;5.70;99.90
17425;DHT22;8830;50.978;5.058;2023-02-28T09:43:50;3.70;99.90
17425;DHT22;8830;50.978;5.058;2023-02-28T09:46:27;4.50;99.90
17425;DHT22;8830;50.978;5.058;2023-02-28T09:49:01;4.00;99.90
17425;DHT22;8830;50.978;5.058;2023-02-28T09:51:36;4.10;99.90
17425;DHT22;8830;50.978;5.058;2023-02-28T09:54:11;4.10;99.90
17425;DHT22;8830;50.978;5.058;2023-02-28T09:56:40;4.10;99.90
17425;DHT22;8830;50.978;5.058;2023-02-28T09:59:14;4.10;99.90
17425;DHT22;8830;50.978;5.058;2023-02-28T10:01:53;4.10;99.90
17425;DHT22;8830;50.978;5.058;2023-02-28T10:04:41;5.30;99.90
17425;DHT22;8830;50.978;5.058;2023-02-28T10:07:20;4.30;99.90
17425;DHT22;8830;50.978;5.058;2023-02-28T10:09:53;4.30;99.90
17425;DHT22;8830;50.978;5.058;2023-02-28T10:12:21;4.30;99.90
17425;DHT22;8830;50.978;5.058;2023-02-28T10:14:52;4.30;99.90
17425;DHT22;8830;50.978;5.058;2023-02-28T10:17:21;4.20;99.90
17425;DHT22;8830;50.978;5.058;2023-02-28T10:19:58;4.90;99.90
17425;DHT22;8830;50.978;5.058;2023-02-28T10:22:31;4.70;99.90
17425;DHT22;8830;50.978;5.058;2023-02-28T10:25:01;4.40;99.90
17425;DHT22;8830;50.978;5.058;2023-02-28T10:27:38;4.50;99.90
17425;DHT22;8830;50.978;5.058;2023-02-28T10:30:06;4.40;99.90
17425;DHT22;8830;50.978;5.058;2023-02-28T10:32:35;4.40;99.90
17425;DHT22;8830;50.978;5.058;2023-02-28T10:35:10;5.80;99.90
17425;DHT22;8830;50.978;5.058;2023-02-28T10:37:42;4.70;99.90
17425;DHT22;8830;50.978;5.058;2023-02-28T10:40:28;4.50;99.90
17425;DHT22;8830;50.978;5.058;2023-02-28T10:42:56;4.60;99.90
17425;DHT22;8830;50.978;5.058;2023-02-28T10:45:23;4.60;99.90
17425;DHT22;8830;50.978;5.058;2023-02-28T10:47:53;4.80;99.90
17425;DHT22;8830;50.978;5.058;2023-02-28T10:50:35;4.90;99.90
17425;DHT22;8830;50.978;5.058;2023-02-28T10:53:14;4.90;99.90
17425;DHT22;8830;50.978;5.058;2023-02-28T10:55:43;5.10;99.90
17425;DHT22;8830;50.978;5.058;2023-02-28T10:58:21;4.70;99.90
17425;DHT22;8830;50.978;5.058;2023-02-28T11:00:52;4.70;99.90
17425;DHT22;8830;50.978;5.058;2023-02-28T11:03:31;4.80;99.90
17425;DHT22;8830;50.978;5.058;2023-02-28T11:06:06;4.80;99.90
17425;DHT22;8830;50.978;5.058;2023-02-28T11:08:44;4.70;99.90
17425;DHT22;8830;50.978;5.058;2023-02-28T11:11:12;7.40;99.90
17425;DHT22;8830;50.978;5.058;2023-02-28T11:13:39;4.60;99.90
17425;DHT22;8830;50.978;5.058;2023-02-28T11:16:10;4.90;99.90
17425;DHT22;8830;50.978;5.058;2023-02-28T11:18:41;3.70;99.90
17425;DHT22;8830;50.978;5.058;2023-02-28T11:21:10;4.80;99.90
17425;DHT22;8830;50.978;5.058;2023-02-28T11:23:43;4.80;99.90
17425;DHT22;8830;50.978;5.058;2023-02-28T11:26:10;4.90;99.90
17425;DHT22;8830;50.978;5.058;2023-02-28T11:28:39;4.90;99.90
17425;DHT22;8830;50.978;5.058;2023-02-28T11:31:16;5.30;99.90
17425;DHT22;8830;50.978;5.058;2023-02-28T11:33:47;4.90;99.90
17425;DHT22;8830;50.978;5.058;2023-02-28T11:36:19;5.20;99.90
17425;DHT22;8830;50.978;5.058;2023-02-28T11:38:48;4.90;99.90
17425;DHT22;8830;50.978;5.058;2023-02-28T11:41:31;4.90;99.90
17425;DHT22;8830;50.978;5.058;2023-02-28T11:44:23;4.90;99.90
17425;DHT22;8830;50.978;5.058;2023-02-28T11:46:57;4.90;99.90
17425;DHT22;8830;50.978;5.058;2023-02-28T11:49:32;5.70;99.90
17425;DHT22;8830;50.978;5.058;2023-02-28T11:52:10;5.00;99.90
17425;DHT22;8830;50.978;5.058;2023-02-28T11:54:59;5.10;99.90
17425;DHT22;8830;50.978;5.058;2023-02-28T11:57:41;5.10;99.90
17425;DHT22;8830;50.978;5.058;2023-02-28T12:00:29;6.00;99.90
17425;DHT22;8830;50.978;5.058;2023-02-28T12:03:08;5.00;99.90
17425;DHT22;8830;50.978;5.058;2023-02-28T12:05:45;5.10;99.90
17425;DHT22;8830;50.978;5.058;2023-02-28T12:08:27;5.10;99.90
17425;DHT22;8830;50.978;5.058;2023-02-28T12:11:05;6.00;99.90
17425;DHT22;8830;50.978;5.058;2023-02-28T12:13:45;5.30;99.90
17425;DHT22;8830;50.978;5.058;2023-02-28T12:19:16;5.20;99.90
17425;DHT22;8830;50.978;5.058;2023-02-28T12:22:00;5.20;99.90
17425;DHT22;8830;50.978;5.058;2023-02-28T12:24:45;5.20;99.90
17425;DHT22;8830;50.978;5.058;2023-02-28T12:27:21;5.20;99.90
17425;DHT22;8830;50.978;5.058;2023-02-28T12:29:58;5.30;99.90
17425;DHT22;8830;50.978;5.058;2023-02-28T12:32:30;5.30;99.90
17425;DHT22;8830;50.978;5.058;2023-02-28T12:35:02;5.70;99.90
17425;DHT22;8830;50.978;5.058;2023-02-28T12:37:36;5.20;99.90
17425;DHT22;8830;50.978;5.058;2023-02-28T12:40:09;8.00;99.90
17425;DHT22;8830;50.978;5.058;2023-02-28T12:42:41;5.50;99.90
17425;DHT22;8830;50.978;5.058;2023-02-28T12:45:13;6.10;99.90
17425;DHT22;8830;50.978;5.058;2023-02-28T12:47:45;5.50;99.90
17425;DHT22;8830;50.978;5.058;2023-02-28T12:50:12;7.40;99.90
17425;DHT22;8830;50.978;5.058;2023-02-28T12:52:45;5.50;99.90
17425;DHT22;8830;50.978;5.058;2023-02-28T12:55:19;5.50;99.90
17425;DHT22;8830;50.978;5.058;2023-02-28T12:57:55;5.50;99.90
17425;DHT22;8830;50.978;5.058;2023-02-28T13:00:29;6.20;99.90
17425;DHT22;8830;50.978;5.058;2023-02-28T13:03:12;5.60;99.90
17425;DHT22;8830;50.978;5.058;2023-02-28T13:06:08;5.60;99.90
17425;DHT22;8830;50.978;5.058;2023-02-28T13:09:01;5.60;99.90
17425;DHT22;8830;50.978;5.058;2023-02-28T13:11:30;5.60;99.90
17425;DHT22;8830;50.978;5.058;2023-02-28T13:14:01;5.60;99.90
17425;DHT22;8830;50.978;5.058;2023-02-28T13:16:50;5.60;99.90
17425;DHT22;8830;50.978;5.058;2023-02-28T13:19:18;5.60;99.90
17425;DHT22;8830;50.978;5.058;2023-02-28T13:21:47;5.70;99.90
17425;DHT22;8830;50.978;5.058;2023-02-28T13:24:43;5.60;99.90
17425;DHT22;8830;50.978;5.058;2023-02-28T13:27:24;5.80;99.90
17425;DHT22;8830;50.978;5.058;2023-02-28T13:29:59;5.70;99.90
17425;DHT22;8830;50.978;5.058;2023-02-28T13:32:33;6.00;99.90
17425;DHT22;8830;50.978;5.058;2023-02-28T13:35:35;5.80;99.90
17425;DHT22;8830;50.978;5.058;2023-02-28T13:44:01;5.80;99.90
17425;DHT22;8830;50.978;5.058;2023-02-28T13:46:30;6.90;99.90
17425;DHT22;8830;50.978;5.058;2023-02-28T13:49:19;5.70;99.90
17425;DHT22;8830;50.978;5.058;2023-02-28T13:51:47;5.80;99.90
17425;DHT22;8830;50.978;5.058;2023-02-28T13:57:17;5.90;99.90
17425;DHT22;8830;50.978;5.058;2023-02-28T13:59:53;5.80;99.90
17425;DHT22;8830;50.978;5.058;2023-02-28T14:02:37;5.80;99.90
17425;DHT22;8830;50.978;5.058;2023-02-28T14:05:13;8.70;99.90
17425;DHT22;8830;50.978;5.058;2023-02-28T14:07:45;6.10;99.90
17425;DHT22;8830;50.978;5.058;2023-02-28T14:10:23;5.80;99.90
17425;DHT22;8830;50.978;5.058;2023-02-28T14:13:00;5.80;99.90
17425;DHT22;8830;50.978;5.058;2023-02-28T14:15:49;5.70;99.90
17425;DHT22;8830;50.978;5.058;2023-02-28T14:18:25;5.80;99.90
17425;DHT22;8830;50.978;5.058;2023-02-28T14:20:57;5.80;99.90
17425;DHT22;8830;50.978;5.058;2023-02-28T14:26:41;5.70;99.90
17425;DHT22;8830;50.978;5.058;2023-02-28T14:32:18;6.40;99.90
17425;DHT22;8830;50.978;5.058;2023-02-28T14:34:55;8.20;99.90
17425;DHT22;8830;50.978;5.058;2023-02-28T14:37:29;5.90;99.90
17425;DHT22;8830;50.978;5.058;2023-02-28T14:39:59;6.50;99.90
17425;DHT22;8830;50.978;5.058;2023-02-28T14:42:32;5.90;99.90
17425;DHT22;8830;50.978;5.058;2023-02-28T14:45:01;6.00;99.90
17425;DHT22;8830;50.978;5.058;2023-02-28T14:47:31;5.90;99.90
17425;DHT22;8830;50.978;5.058;2023-02-28T14:50:01;5.90;99.90
17425;DHT22;8830;50.978;5.058;2023-02-28T14:52:31;5.80;99.90
17425;DHT22;8830;50.978;5.058;2023-02-28T14:55:00;5.80;99.90
17425;DHT22;8830;50.978;5.058;2023-02-28T14:57:29;6.00;99.90
17425;DHT22;8830;50.978;5.058;2023-02-28T15:00:02;5.90;99.90
17425;DHT22;8830;50.978;5.058;2023-02-28T15:02:36;5.90;99.90
17425;DHT22;8830;50.978;5.058;2023-02-28T15:05:24;5.90;99.90
17425;DHT22;8830;50.978;5.058;2023-02-28T15:08:02;5.90;99.90
17425;DHT22;8830;50.978;5.058;2023-02-28T15:10:30;6.10;99.90
17425;DHT22;8830;50.978;5.058;2023-02-28T15:12:58;5.80;99.90
17425;DHT22;8830;50.978;5.058;2023-02-28T15:15:37;5.80;99.90
17425;DHT22;8830;50.978;5.058;2023-02-28T15:18:07;5.80;99.90
17425;DHT22;8830;50.978;5.058;2023-02-28T15:20:39;5.80;99.90
17425;DHT22;8830;50.978;5.058;2023-02-28T15:23:09;5.80;99.90
17425;DHT22;8830;50.978;5.058;2023-02-28T15:25:37;7.00;99.90
17425;DHT22;8830;50.978;5.058;2023-02-28T15:28:04;5.90;99.90
17425;DHT22;8830;50.978;5.058;2023-02-28T15:30:32;5.90;99.90
17425;DHT22;8830;50.978;5.058;2023-02-28T15:33:05;6.20;99.90
17425;DHT22;8830;50.978;5.058;2023-02-28T15:35:35;5.80;99.90
17425;DHT22;8830;50.978;5.058;2023-02-28T15:38:13;5.80;99.90
17425;DHT22;8830;50.978;5.058;2023-02-28T15:40:43;5.80;99.90
17425;DHT22;8830;50.978;5.058;2023-02-28T15:43:15;5.70;99.90
17425;DHT22;8830;50.978;5.058;2023-02-28T15:45:46;5.80;99.90
17425;DHT22;8830;50.978;5.058;2023-02-28T15:48:17;5.70;99.90
17425;DHT22;8830;50.978;5.058;2023-02-28T15:50:48;7.10;99.90
17425;DHT22;8830;50.978;5.058;2023-02-28T15:53:21;5.60;99.90
17425;DHT22;8830;50.978;5.058;2023-02-28T15:55:54;5.60;99.90
17425;DHT22;8830;50.978;5.058;2023-02-28T15:58:22;5.60;99.90
17425;DHT22;8830;50.978;5.058;2023-02-28T16:01:04;5.60;99.90
17425;DHT22;8830;50.978;5.058;2023-02-28T16:03:40;5.60;99.90
17425;DHT22;8830;50.978;5.058;2023-02-28T16:06:42;5.40;99.90
17425;DHT22;8830;50.978;5.058;2023-02-28T16:09:13;5.50;99.90
17425;DHT22;8830;50.978;5.058;2023-02-28T16:11:43;5.50;99.90
17425;DHT22;8830;50.978;5.058;2023-02-28T16:14:15;5.40;99.90
17425;DHT22;8830;50.978;5.058;2023-02-28T16:16:44;8.50;99.90
17425;DHT22;8830;50.978;5.058;2023-02-28T16:19:11;5.50;99.90
17425;DHT22;8830;50.978;5.058;2023-02-28T16:21:38;5.40;99.90
17425;DHT22;8830;50.978;5.058;2023-02-28T16:24:06;5.40;99.90
17425;DHT22;8830;50.978;5.058;2023-02-28T16:26:35;5.40;99.90
17425;DHT22;8830;50.978;5.058;2023-02-28T16:29:03;5.30;99.90
17425;DHT22;8830;50.978;5.058;2023-02-28T16:31:32;5.50;99.90
17425;DHT22;8830;50.978;5.058;2023-02-28T16:34:02;5.20;99.90
17425;DHT22;8830;50.978;5.058;2023-02-28T16:36:29;5.20;99.90
17425;DHT22;8830;50.978;5.058;2023-02-28T16:38:56;5.20;99.90
17425;DHT22;8830;50.978;5.058;2023-02-28T16:41:26;5.10;99.90
17425;DHT22;8830;50.978;5.058;2023-02-28T16:43:56;5.10;99.90
17425;DHT22;8830;50.978;5.058;2023-02-28T16:46:28;5.00;99.90
17425;DHT22;8830;50.978;5.058;2023-02-28T16:48:56;5.00;99.90
17425;DHT22;8830;50.978;5.058;2023-02-28T16:51:24;5.00;99.90
17425;DHT22;8830;50.978;5.058;2023-02-28T16:53:51;5.60;99.90
17425;DHT22;8830;50.978;5.058;2023-02-28T16:56:20;4.80;99.90
17425;DHT22;8830;50.978;5.058;2023-02-28T16:58:48;4.70;99.90